sensor_id;sensor_type;location;lat;lon;timestamp;pressure;altitude;pressure_sealevel;temperature;humidity
46366;BME280;72328;49.570;8.722;2023-11-21T00:02:52;99021.81;;;13.69;58.67
46366;BME280;72328;49.570;8.722;2023-11-21T00:06:53;99022.91;;;13.66;58.31
46366;BME280;72328;49.570;8.722;2023-11-21T00:10:54;99023.19;;;13.63;58.89
46366;BME280;72328;49.570;8.722;2023-11-21T00:14:55;99019.41;;;13.58;58.66
46366;BME280;72328;49.570;8.722;2023-11-21T00:18:56;99025.38;;;13.58;58.81
46366;BME280;72328;49.570;8.722;2023-11-21T00:22:56;99023.34;;;13.62;58.83
46366;BME280;72328;49.570;8.722;2023-11-21T00:26:57;99021.69;;;13.61;58.82
46366;BME280;72328;49.570;8.722;2023-11-21T00:30:58;99018.16;;;13.62;58.88
46366;BME280;72328;49.570;8.722;2023-11-21T00:35:01;99013.81;;;13.62;58.65
46366;BME280;72328;49.570;8.722;2023-11-21T00:39:02;99010.25;;;13.63;58.72
46366;BME280;72328;49.570;8.722;2023-11-21T00:43:03;99009.97;;;13.66;58.64
46366;BME280;72328;49.570;8.722;2023-11-21T00:47:04;99014.31;;;13.66;58.85
46366;BME280;72328;49.570;8.722;2023-11-21T00:51:05;99018.53;;;13.67;58.99
46366;BME280;72328;49.570;8.722;2023-11-21T00:55:07;99017.22;;;13.63;58.99
46366;BME280;72328;49.570;8.722;2023-11-21T00:59:08;99015.44;;;13.63;58.75
46366;BME280;72328;49.570;8.722;2023-11-21T01:03:08;99014.84;;;13.69;58.87
46366;BME280;72328;49.570;8.722;2023-11-21T01:07:09;99014.31;;;13.75;58.70
46366;BME280;72328;49.570;8.722;2023-11-21T01:11:11;99011.97;;;13.82;58.87
46366;BME280;72328;49.570;8.722;2023-11-21T01:15:12;99014.94;;;13.87;58.48
46366;BME280;72328;49.570;8.722;2023-11-21T01:19:13;99022.31;;;13.91;58.74
46366;BME280;72328;49.570;8.722;2023-11-21T01:23:14;99022.53;;;13.98;58.79
46366;BME280;72328;49.570;8.722;2023-11-21T01:27:14;99030.03;;;14.01;58.61
46366;BME280;72328;49.570;8.722;2023-11-21T01:31:15;99024.72;;;14.02;58.89
46366;BME280;72328;49.570;8.722;2023-11-21T01:35:16;99019.69;;;14.01;58.85
46366;BME280;72328;49.570;8.722;2023-11-21T01:39:16;99025.44;;;13.95;58.85
46366;BME280;72328;49.570;8.722;2023-11-21T01:43:23;99015.22;;;13.93;59.22
46366;BME280;72328;49.570;8.722;2023-11-21T01:47:25;99022.31;;;13.91;59.00
46366;BME280;72328;49.570;8.722;2023-11-21T01:51:26;99022.97;;;13.93;59.01
46366;BME280;72328;49.570;8.722;2023-11-21T01:55:27;99020.66;;;14.00;59.16
46366;BME280;72328;49.570;8.722;2023-11-21T01:59:29;99023.75;;;14.03;58.91
46366;BME280;72328;49.570;8.722;2023-11-21T02:03:34;99030.97;;;14.09;59.04
46366;BME280;72328;49.570;8.722;2023-11-21T02:07:35;99017.75;;;14.12;58.94
46366;BME280;72328;49.570;8.722;2023-11-21T02:11:36;99014.06;;;14.15;58.67
46366;BME280;72328;49.570;8.722;2023-11-21T02:15:39;99018.69;;;14.21;58.72
46366;BME280;72328;49.570;8.722;2023-11-21T02:19:40;99026.44;;;14.21;58.67
46366;BME280;72328;49.570;8.722;2023-11-21T02:23:40;99031.63;;;14.21;58.83
46366;BME280;72328;49.570;8.722;2023-11-21T02:27:44;99032.28;;;14.23;59.17
46366;BME280;72328;49.570;8.722;2023-11-21T02:31:52;99035.41;;;14.26;58.93
46366;BME280;72328;49.570;8.722;2023-11-21T02:35:55;99031.84;;;14.27;58.75
46366;BME280;72328;49.570;8.722;2023-11-21T02:39:55;99029.00;;;14.30;58.88
46366;BME280;72328;49.570;8.722;2023-11-21T02:43:56;99029.50;;;14.34;58.97
46366;BME280;72328;49.570;8.722;2023-11-21T02:47:57;99020.78;;;14.35;58.74
46366;BME280;72328;49.570;8.722;2023-11-21T02:52:01;99020.38;;;14.39;58.77
46366;BME280;72328;49.570;8.722;2023-11-21T02:56:02;99021.03;;;14.41;58.60
46366;BME280;72328;49.570;8.722;2023-11-21T03:00:03;99023.47;;;14.43;58.96
46366;BME280;72328;49.570;8.722;2023-11-21T03:04:07;99025.94;;;14.44;58.96
46366;BME280;72328;49.570;8.722;2023-11-21T03:08:11;99023.03;;;14.47;58.94
46366;BME280;72328;49.570;8.722;2023-11-21T03:12:12;99022.06;;;14.48;58.95
46366;BME280;72328;49.570;8.722;2023-11-21T03:16:14;99017.72;;;14.49;58.70
46366;BME280;72328;49.570;8.722;2023-11-21T03:20:14;99022.06;;;14.48;58.91
46366;BME280;72328;49.570;8.722;2023-11-21T03:24:16;99032.59;;;14.47;58.66
46366;BME280;72328;49.570;8.722;2023-11-21T03:28:18;99027.25;;;14.48;58.69
46366;BME280;72328;49.570;8.722;2023-11-21T03:32:18;99032.81;;;14.53;58.80
46366;BME280;72328;49.570;8.722;2023-11-21T03:36:19;99042.06;;;14.56;58.71
46366;BME280;72328;49.570;8.722;2023-11-21T03:40:20;99036.09;;;14.55;58.54
46366;BME280;72328;49.570;8.722;2023-11-21T03:44:21;99040.31;;;14.56;58.91
46366;BME280;72328;49.570;8.722;2023-11-21T03:48:22;99033.63;;;14.54;58.88
46366;BME280;72328;49.570;8.722;2023-11-21T03:52:24;99038.81;;;14.54;58.74
46366;BME280;72328;49.570;8.722;2023-11-21T03:56:24;99038.56;;;14.47;58.72
46366;BME280;72328;49.570;8.722;2023-11-21T04:00:25;99033.97;;;14.41;58.96
46366;BME280;72328;49.570;8.722;2023-11-21T04:04:28;99039.03;;;14.43;58.90
46366;BME280;72328;49.570;8.722;2023-11-21T04:08:29;99050.88;;;14.45;58.88
46366;BME280;72328;49.570;8.722;2023-11-21T04:12:30;99045.56;;;14.47;58.96
46366;BME280;72328;49.570;8.722;2023-11-21T04:16:30;99047.31;;;14.46;58.74
46366;BME280;72328;49.570;8.722;2023-11-21T04:20:31;99057.44;;;14.40;58.82
46366;BME280;72328;49.570;8.722;2023-11-21T04:24:32;99070.69;;;14.37;59.06
46366;BME280;72328;49.570;8.722;2023-11-21T04:28:33;99069.06;;;14.26;59.30
46366;BME280;72328;49.570;8.722;2023-11-21T04:32:33;99063.78;;;14.18;59.39
46366;BME280;72328;49.570;8.722;2023-11-21T04:36:34;99059.44;;;14.09;59.60
46366;BME280;72328;49.570;8.722;2023-11-21T04:40:38;99065.28;;;14.11;59.53
46366;BME280;72328;49.570;8.722;2023-11-21T04:44:39;99071.53;;;14.18;59.63
46366;BME280;72328;49.570;8.722;2023-11-21T04:48:41;99074.56;;;14.23;59.43
46366;BME280;72328;49.570;8.722;2023-11-21T04:52:42;99079.03;;;14.31;59.23
46366;BME280;72328;49.570;8.722;2023-11-21T04:56:43;99087.97;;;14.36;59.25
46366;BME280;72328;49.570;8.722;2023-11-21T05:00:43;99089.47;;;14.39;59.20
46366;BME280;72328;49.570;8.722;2023-11-21T05:04:44;99089.34;;;14.40;59.20
46366;BME280;72328;49.570;8.722;2023-11-21T05:08:45;99093.41;;;14.43;59.09
46366;BME280;72328;49.570;8.722;2023-11-21T05:12:45;99088.91;;;14.45;59.05
46366;BME280;72328;49.570;8.722;2023-11-21T05:16:46;99093.41;;;14.43;59.16
46366;BME280;72328;49.570;8.722;2023-11-21T05:20:47;99105.53;;;14.42;59.36
46366;BME280;72328;49.570;8.722;2023-11-21T05:24:51;99106.06;;;14.46;59.18
46366;BME280;72328;49.570;8.722;2023-11-21T05:28:51;99111.94;;;14.48;59.26
46366;BME280;72328;49.570;8.722;2023-11-21T05:32:52;99118.59;;;14.50;59.22
46366;BME280;72328;49.570;8.722;2023-11-21T05:36:53;99118.59;;;14.50;59.21
46366;BME280;72328;49.570;8.722;2023-11-21T05:40:54;99135.34;;;14.56;59.03
46366;BME280;72328;49.570;8.722;2023-11-21T05:44:55;99134.41;;;14.57;59.10
46366;BME280;72328;49.570;8.722;2023-11-21T05:48:55;99129.06;;;14.58;59.18
46366;BME280;72328;49.570;8.722;2023-11-21T05:52:57;99136.69;;;14.60;59.08
46366;BME280;72328;49.570;8.722;2023-11-21T05:57:00;99134.94;;;14.60;59.33
46366;BME280;72328;49.570;8.722;2023-11-21T06:01:01;99139.81;;;14.63;59.29
46366;BME280;72328;49.570;8.722;2023-11-21T06:05:02;99156.84;;;14.66;58.99
46366;BME280;72328;49.570;8.722;2023-11-21T06:09:04;99160.25;;;14.66;58.97
46366;BME280;72328;49.570;8.722;2023-11-21T06:13:06;99159.44;;;14.66;58.96
46366;BME280;72328;49.570;8.722;2023-11-21T06:17:08;99160.13;;;14.68;59.07
46366;BME280;72328;49.570;8.722;2023-11-21T06:21:10;99169.53;;;14.69;59.03
46366;BME280;72328;49.570;8.722;2023-11-21T06:25:11;99178.78;;;14.71;59.08
46366;BME280;72328;49.570;8.722;2023-11-21T06:29:13;99176.19;;;14.71;59.02
46366;BME280;72328;49.570;8.722;2023-11-21T06:33:14;99180.56;;;14.71;59.07
46366;BME280;72328;49.570;8.722;2023-11-21T06:37:15;99187.22;;;14.73;59.28
46366;BME280;72328;49.570;8.722;2023-11-21T06:41:17;99190.66;;;14.74;59.20
46366;BME280;72328;49.570;8.722;2023-11-21T06:45:18;99198.41;;;14.74;59.30
46366;BME280;72328;49.570;8.722;2023-11-21T06:49:19;99204.56;;;14.73;59.32
46366;BME280;72328;49.570;8.722;2023-11-21T06:53:19;99210.28;;;14.76;59.30
46366;BME280;72328;49.570;8.722;2023-11-21T06:57:20;99212.88;;;14.76;59.17
46366;BME280;72328;49.570;8.722;2023-11-21T07:01:23;99225.69;;;14.78;59.03
46366;BME280;72328;49.570;8.722;2023-11-21T07:05:25;99229.09;;;14.78;59.21
46366;BME280;72328;49.570;8.722;2023-11-21T07:09:25;99229.09;;;14.78;59.06
46366;BME280;72328;49.570;8.722;2023-11-21T07:13:26;99230.72;;;14.79;59.12
46366;BME280;72328;49.570;8.722;2023-11-21T07:17:27;99244.38;;;14.81;59.10
46366;BME280;72328;49.570;8.722;2023-11-21T07:21:28;99247.88;;;14.80;59.46
46366;BME280;72328;49.570;8.722;2023-11-21T07:25:29;99257.31;;;14.81;59.25
46366;BME280;72328;49.570;8.722;2023-11-21T07:29:30;99265.75;;;14.83;59.58
46366;BME280;72328;49.570;8.722;2023-11-21T07:33:30;99261.53;;;14.82;59.25
46366;BME280;72328;49.570;8.722;2023-11-21T07:37:31;99269.19;;;14.84;59.45
46366;BME280;72328;49.570;8.722;2023-11-21T07:41:32;99276.78;;;14.85;59.49
46366;BME280;72328;49.570;8.722;2023-11-21T07:45:32;99278.44;;;14.86;59.42
46366;BME280;72328;49.570;8.722;2023-11-21T07:49:33;99289.34;;;14.90;59.54
46366;BME280;72328;49.570;8.722;2023-11-21T07:53:34;99281.84;;;14.87;59.55
46366;BME280;72328;49.570;8.722;2023-11-21T07:57:35;99291.69;;;14.83;59.57
46366;BME280;72328;49.570;8.722;2023-11-21T08:01:36;99301.13;;;14.75;59.54
46366;BME280;72328;49.570;8.722;2023-11-21T08:05:36;99296.75;;;14.66;59.56
46366;BME280;72328;49.570;8.722;2023-11-21T08:09:41;99294.59;;;14.61;59.79
46366;BME280;72328;49.570;8.722;2023-11-21T08:13:42;99299.09;;;14.59;60.09
46366;BME280;72328;49.570;8.722;2023-11-21T08:17:43;99301.28;;;14.64;60.14
46366;BME280;72328;49.570;8.722;2023-11-21T08:21:44;99301.69;;;14.69;60.29
46366;BME280;72328;49.570;8.722;2023-11-21T08:25:46;99313.53;;;14.71;60.39
46366;BME280;72328;49.570;8.722;2023-11-21T08:29:47;99307.25;;;14.74;60.53
46366;BME280;72328;49.570;8.722;2023-11-21T08:33:47;99324.00;;;14.79;60.57
46366;BME280;72328;49.570;8.722;2023-11-21T08:37:49;99327.13;;;14.83;60.72
46366;BME280;72328;49.570;8.722;2023-11-21T08:41:51;99330.69;;;14.91;60.59
46366;BME280;72328;49.570;8.722;2023-11-21T08:45:51;99334.34;;;14.98;60.54
46366;BME280;72328;49.570;8.722;2023-11-21T08:49:52;99336.94;;;14.98;60.76
46366;BME280;72328;49.570;8.722;2023-11-21T08:53:53;99346.88;;;15.03;60.84
46366;BME280;72328;49.570;8.722;2023-11-21T08:57:54;99345.66;;;15.07;60.95
46366;BME280;72328;49.570;8.722;2023-11-21T09:01:54;99350.13;;;15.14;60.65
46366;BME280;72328;49.570;8.722;2023-11-21T09:05:55;99362.44;;;15.12;60.63
46366;BME280;72328;49.570;8.722;2023-11-21T09:09:56;99365.03;;;15.12;60.76
46366;BME280;72328;49.570;8.722;2023-11-21T09:13:56;99367.75;;;15.11;60.79
46366;BME280;72328;49.570;8.722;2023-11-21T09:17:58;99369.25;;;15.04;60.70
46366;BME280;72328;49.570;8.722;2023-11-21T09:22:02;99377.31;;;15.01;61.05
46366;BME280;72328;49.570;8.722;2023-11-21T09:26:03;99379.38;;;14.97;61.14
46366;BME280;72328;49.570;8.722;2023-11-21T09:30:06;99389.88;;;14.96;61.27
46366;BME280;72328;49.570;8.722;2023-11-21T09:34:10;99394.25;;;14.95;61.19
46366;BME280;72328;49.570;8.722;2023-11-21T09:38:12;99401.63;;;15.00;61.34
46366;BME280;72328;49.570;8.722;2023-11-21T09:42:19;99406.50;;;15.03;60.98
46366;BME280;72328;49.570;8.722;2023-11-21T09:46:22;99405.97;;;14.99;61.16
46366;BME280;72328;49.570;8.722;2023-11-21T09:50:24;99412.25;;;14.97;61.24
46366;BME280;72328;49.570;8.722;2023-11-21T09:54:26;99412.38;;;14.95;61.43
46366;BME280;72328;49.570;8.722;2023-11-21T09:58:29;99424.81;;;14.92;61.22
46366;BME280;72328;49.570;8.722;2023-11-21T10:02:30;99427.41;;;14.92;60.97
46366;BME280;72328;49.570;8.722;2023-11-21T10:06:35;99422.34;;;14.90;60.96
46366;BME280;72328;49.570;8.722;2023-11-21T10:10:37;99430.41;;;14.87;60.92
46366;BME280;72328;49.570;8.722;2023-11-21T10:14:40;99433.56;;;14.81;61.09
46366;BME280;72328;49.570;8.722;2023-11-21T10:18:41;99438.03;;;14.79;61.11
46366;BME280;72328;49.570;8.722;2023-11-21T10:22:45;99435.88;;;14.84;61.24
46366;BME280;72328;49.570;8.722;2023-11-21T10:26:46;99435.59;;;14.87;61.21
46366;BME280;72328;49.570;8.722;2023-11-21T10:30:49;99431.09;;;14.89;61.13
46366;BME280;72328;49.570;8.722;2023-11-21T10:34:56;99441.75;;;14.86;60.90
46366;BME280;72328;49.570;8.722;2023-11-21T10:38:57;99434.38;;;14.82;61.16
46366;BME280;72328;49.570;8.722;2023-11-21T10:43:07;99439.97;;;14.87;61.18
46366;BME280;72328;49.570;8.722;2023-11-21T10:47:11;99448.56;;;14.87;61.15
46366;BME280;72328;49.570;8.722;2023-11-21T10:51:12;99443.50;;;14.86;61.27
46366;BME280;72328;49.570;8.722;2023-11-21T10:55:17;99451.81;;;14.89;61.06
46366;BME280;72328;49.570;8.722;2023-11-21T10:59:18;99462.34;;;14.97;61.16
46366;BME280;72328;49.570;8.722;2023-11-21T11:03:21;99461.66;;;15.05;61.11
46366;BME280;72328;49.570;8.722;2023-11-21T11:07:27;99463.03;;;14.99;61.23
46366;BME280;72328;49.570;8.722;2023-11-21T11:11:28;99461.66;;;15.05;61.54
46366;BME280;72328;49.570;8.722;2023-11-21T11:15:30;99461.78;;;15.03;61.32
46366;BME280;72328;49.570;8.722;2023-11-21T11:19:31;99459.75;;;15.07;61.59
46366;BME280;72328;49.570;8.722;2023-11-21T11:27:54;99455.06;;;15.29;61.75
46366;BME280;72328;49.570;8.722;2023-11-21T11:32:33;99448.13;;;15.39;61.94
46366;BME280;72328;49.570;8.722;2023-11-21T11:36:45;99448.63;;;15.52;62.09
46366;BME280;72328;49.570;8.722;2023-11-21T11:40:48;99461.56;;;15.62;61.92
46366;BME280;72328;49.570;8.722;2023-11-21T11:44:53;99461.81;;;15.68;62.03
46366;BME280;72328;49.570;8.722;2023-11-21T11:49:04;99469.22;;;15.73;61.97
46366;BME280;72328;49.570;8.722;2023-11-21T11:53:14;99464.56;;;15.76;62.00
46366;BME280;72328;49.570;8.722;2023-11-21T11:57:16;99472.03;;;15.79;61.58
46366;BME280;72328;49.570;8.722;2023-11-21T12:01:21;99468.66;;;15.69;61.52
46366;BME280;72328;49.570;8.722;2023-11-21T12:05:23;99479.19;;;15.68;61.46
46366;BME280;72328;49.570;8.722;2023-11-21T12:09:23;99483.56;;;15.67;61.72
46366;BME280;72328;49.570;8.722;2023-11-21T12:13:24;99483.03;;;15.64;61.77
46366;BME280;72328;49.570;8.722;2023-11-21T12:17:25;99490.81;;;15.64;61.65
46366;BME280;72328;49.570;8.722;2023-11-21T12:21:26;99481.41;;;15.63;61.76
46366;BME280;72328;49.570;8.722;2023-11-21T12:25:29;99492.97;;;15.68;61.56
46366;BME280;72328;49.570;8.722;2023-11-21T12:29:31;99495.31;;;15.71;61.78
46366;BME280;72328;49.570;8.722;2023-11-21T12:33:33;99485.00;;;15.79;62.02
46366;BME280;72328;49.570;8.722;2023-11-21T12:37:37;99491.81;;;15.90;61.97
46366;BME280;72328;49.570;8.722;2023-11-21T12:41:38;99497.63;;;16.01;62.31
46366;BME280;72328;49.570;8.722;2023-11-21T12:45:39;99492.94;;;16.14;62.15
46366;BME280;72328;49.570;8.722;2023-11-21T12:49:40;99508.28;;;16.35;62.36
46366;BME280;72328;49.570;8.722;2023-11-21T12:53:44;99506.22;;;16.48;62.39
46366;BME280;72328;49.570;8.722;2023-11-21T12:57:45;99508.31;;;16.62;62.83
46366;BME280;72328;49.570;8.722;2023-11-21T13:01:46;99507.94;;;16.74;63.36
46366;BME280;72328;49.570;8.722;2023-11-21T13:05:48;99509.06;;;16.89;63.90
46366;BME280;72328;49.570;8.722;2023-11-21T13:09:54;99513.19;;;17.09;63.05
46366;BME280;72328;49.570;8.722;2023-11-21T13:13:55;99509.69;;;17.18;62.49
46366;BME280;72328;49.570;8.722;2023-11-21T13:17:57;99518.88;;;17.30;62.28
46366;BME280;72328;49.570;8.722;2023-11-21T13:22:00;99519.69;;;17.31;61.74
46366;BME280;72328;49.570;8.722;2023-11-21T13:26:04;99524.38;;;17.27;61.42
46366;BME280;72328;49.570;8.722;2023-11-21T13:30:06;99524.84;;;17.23;61.23
46366;BME280;72328;49.570;8.722;2023-11-21T13:34:09;99536.22;;;17.22;61.16
46366;BME280;72328;49.570;8.722;2023-11-21T13:38:11;99532.63;;;17.23;61.16
46366;BME280;72328;49.570;8.722;2023-11-21T13:42:12;99535.69;;;17.18;60.81
46366;BME280;72328;49.570;8.722;2023-11-21T13:46:13;99542.16;;;17.14;60.69
46366;BME280;72328;49.570;8.722;2023-11-21T13:50:18;99547.28;;;17.06;60.66
46366;BME280;72328;49.570;8.722;2023-11-21T13:54:23;99557.25;;;16.93;60.48
46366;BME280;72328;49.570;8.722;2023-11-21T13:58:25;99563.31;;;16.84;60.65
46366;BME280;72328;49.570;8.722;2023-11-21T14:02:52;99574.03;;;16.81;60.63
46366;BME280;72328;49.570;8.722;2023-11-21T14:06:52;99568.28;;;16.78;60.33
46366;BME280;72328;49.570;8.722;2023-11-21T14:10:55;99563.28;;;16.67;60.10
46366;BME280;72328;49.570;8.722;2023-11-21T14:15:00;99587.50;;;16.67;60.08
46366;BME280;72328;49.570;8.722;2023-11-21T14:19:03;99585.34;;;16.63;59.98
46366;BME280;72328;49.570;8.722;2023-11-21T14:23:15;99588.38;;;16.58;59.98
46366;BME280;72328;49.570;8.722;2023-11-21T14:27:16;99596.47;;;16.55;59.81
46366;BME280;72328;49.570;8.722;2023-11-21T14:31:17;99594.13;;;16.52;59.60
46366;BME280;72328;49.570;8.722;2023-11-21T14:35:18;99597.03;;;16.49;59.51
46366;BME280;72328;49.570;8.722;2023-11-21T14:39:19;99606.50;;;16.41;59.31
46366;BME280;72328;49.570;8.722;2023-11-21T14:43:31;99601.59;;;16.28;59.52
46366;BME280;72328;49.570;8.722;2023-11-21T14:47:35;99602.97;;;16.23;59.49
46366;BME280;72328;49.570;8.722;2023-11-21T14:51:39;99606.28;;;16.15;59.48
46366;BME280;72328;49.570;8.722;2023-11-21T14:55:59;99610.94;;;16.12;59.50
46366;BME280;72328;49.570;8.722;2023-11-21T15:00:02;99616.41;;;16.09;58.90
46366;BME280;72328;49.570;8.722;2023-11-21T15:04:10;99621.06;;;16.05;59.05
46366;BME280;72328;49.570;8.722;2023-11-21T15:08:28;99631.47;;;15.96;58.88
46366;BME280;72328;49.570;8.722;2023-11-21T15:12:32;99631.09;;;15.81;58.52
46366;BME280;72328;49.570;8.722;2023-11-21T15:16:37;99632.84;;;15.62;59.06
46366;BME280;72328;49.570;8.722;2023-11-21T15:20:41;99637.66;;;15.47;59.07
46366;BME280;72328;49.570;8.722;2023-11-21T15:24:43;99644.59;;;15.37;59.10
46366;BME280;72328;49.570;8.722;2023-11-21T15:28:46;99644.16;;;15.32;59.01
46366;BME280;72328;49.570;8.722;2023-11-21T15:32:47;99652.91;;;15.31;59.15
46366;BME280;72328;49.570;8.722;2023-11-21T15:36:51;99651.03;;;15.33;58.83
46366;BME280;72328;49.570;8.722;2023-11-21T15:40:54;99653.63;;;15.33;58.67
46366;BME280;72328;49.570;8.722;2023-11-21T15:44:55;99658.81;;;15.33;58.70
46366;BME280;72328;49.570;8.722;2023-11-21T15:48:56;99662.31;;;15.32;58.54
46366;BME280;72328;49.570;8.722;2023-11-21T15:52:57;99671.78;;;15.33;58.40
46366;BME280;72328;49.570;8.722;2023-11-21T15:56:59;99671.06;;;15.31;58.18
46366;BME280;72328;49.570;8.722;2023-11-21T16:01:00;99671.34;;;15.28;58.15
46366;BME280;72328;49.570;8.722;2023-11-21T16:05:01;99676.66;;;15.27;58.13
46366;BME280;72328;49.570;8.722;2023-11-21T16:09:04;99688.00;;;15.26;58.19
46366;BME280;72328;49.570;8.722;2023-11-21T16:13:06;99695.06;;;15.24;58.59
46366;BME280;72328;49.570;8.722;2023-11-21T16:17:09;99697.09;;;15.20;58.04
46366;BME280;72328;49.570;8.722;2023-11-21T16:21:11;99702.84;;;15.14;58.20
46366;BME280;72328;49.570;8.722;2023-11-21T16:25:12;99712.53;;;15.12;57.98
46366;BME280;72328;49.570;8.722;2023-11-21T16:29:14;99713.72;;;15.08;58.00
46366;BME280;72328;49.570;8.722;2023-11-21T16:33:15;99730.94;;;15.09;58.01
46366;BME280;72328;49.570;8.722;2023-11-21T16:37:16;99736.66;;;15.03;58.29
46366;BME280;72328;49.570;8.722;2023-11-21T16:41:16;99734.06;;;15.03;58.00
46366;BME280;72328;49.570;8.722;2023-11-21T16:45:18;99753.00;;;15.04;58.14
46366;BME280;72328;49.570;8.722;2023-11-21T16:49:22;99747.25;;;15.00;58.13
46366;BME280;72328;49.570;8.722;2023-11-21T16:53:23;99746.84;;;14.95;58.27
46366;BME280;72328;49.570;8.722;2023-11-21T16:57:23;99752.16;;;14.94;58.37
46366;BME280;72328;49.570;8.722;2023-11-21T17:01:24;99766.91;;;14.93;58.08
46366;BME280;72328;49.570;8.722;2023-11-21T17:05:26;99769.50;;;14.93;58.36
46366;BME280;72328;49.570;8.722;2023-11-21T17:09:26;99768.53;;;14.94;58.02
46366;BME280;72328;49.570;8.722;2023-11-21T17:13:27;99777.25;;;14.93;58.25
46366;BME280;72328;49.570;8.722;2023-11-21T17:17:30;99779.84;;;14.93;58.40
46366;BME280;72328;49.570;8.722;2023-11-21T17:21:31;99792.69;;;14.95;58.12
46366;BME280;72328;49.570;8.722;2023-11-21T17:25:31;99801.56;;;14.92;58.16
46366;BME280;72328;49.570;8.722;2023-11-21T17:29:32;99801.81;;;14.89;58.21
46366;BME280;72328;49.570;8.722;2023-11-21T17:33:33;99792.19;;;14.80;58.52
46366;BME280;72328;49.570;8.722;2023-11-21T17:37:33;99795.38;;;14.84;58.43
46366;BME280;72328;49.570;8.722;2023-11-21T17:41:34;99816.91;;;14.84;58.25
46366;BME280;72328;49.570;8.722;2023-11-21T17:45:34;99812.56;;;14.85;58.43
46366;BME280;72328;49.570;8.722;2023-11-21T17:49:35;99807.38;;;14.85;58.48
46366;BME280;72328;49.570;8.722;2023-11-21T17:53:36;99803.00;;;14.85;58.41
46366;BME280;72328;49.570;8.722;2023-11-21T17:57:37;99809.13;;;14.84;58.51
46366;BME280;72328;49.570;8.722;2023-11-21T18:01:39;99823.88;;;14.84;58.31
46366;BME280;72328;49.570;8.722;2023-11-21T18:05:42;99825.75;;;14.82;58.26
46366;BME280;72328;49.570;8.722;2023-11-21T18:09:44;99824.97;;;14.81;58.32
46366;BME280;72328;49.570;8.722;2023-11-21T18:13:44;99829.19;;;14.82;58.52
46366;BME280;72328;49.570;8.722;2023-11-21T18:17:45;99846.38;;;14.83;58.29
46366;BME280;72328;49.570;8.722;2023-11-21T18:21:46;99851.56;;;14.83;58.46
46366;BME280;72328;49.570;8.722;2023-11-21T18:25:46;99849.09;;;14.82;58.31
46366;BME280;72328;49.570;8.722;2023-11-21T18:29:47;99848.41;;;14.80;58.27
46366;BME280;72328;49.570;8.722;2023-11-21T18:33:48;99850.03;;;14.81;58.34
46366;BME280;72328;49.570;8.722;2023-11-21T18:37:52;99871.63;;;14.81;58.20
46366;BME280;72328;49.570;8.722;2023-11-21T18:41:53;99868.31;;;14.79;58.51
46366;BME280;72328;49.570;8.722;2023-11-21T18:45:55;99864.91;;;14.79;58.00
46366;BME280;72328;49.570;8.722;2023-11-21T18:49:56;99881.28;;;14.79;58.35
46366;BME280;72328;49.570;8.722;2023-11-21T18:53:57;99882.91;;;14.80;58.50
46366;BME280;72328;49.570;8.722;2023-11-21T18:57:58;99890.69;;;14.80;58.21
46366;BME280;72328;49.570;8.722;2023-11-21T19:02:02;99894.94;;;14.81;58.52
46366;BME280;72328;49.570;8.722;2023-11-21T19:06:05;99900.13;;;14.81;58.56
46366;BME280;72328;49.570;8.722;2023-11-21T19:10:06;99891.78;;;14.78;58.41
46366;BME280;72328;49.570;8.722;2023-11-21T19:14:10;99906.25;;;14.80;58.30
46366;BME280;72328;49.570;8.722;2023-11-21T19:18:10;99913.09;;;14.81;58.47
46366;BME280;72328;49.570;8.722;2023-11-21T19:22:11;99916.75;;;14.79;58.31
46366;BME280;72328;49.570;8.722;2023-11-21T19:26:11;99923.59;;;14.80;58.57
46366;BME280;72328;49.570;8.722;2023-11-21T19:30:13;99934.06;;;14.78;58.29
46366;BME280;72328;49.570;8.722;2023-11-21T19:34:14;99937.50;;;14.79;58.44
46366;BME280;72328;49.570;8.722;2023-11-21T19:38:21;99933.38;;;14.76;58.42
46366;BME280;72328;49.570;8.722;2023-11-21T19:42:23;99940.88;;;14.79;58.53
46366;BME280;72328;49.570;8.722;2023-11-21T19:46:24;99946.34;;;14.76;58.71
46366;BME280;72328;49.570;8.722;2023-11-21T19:50:25;99951.66;;;14.75;58.63
46366;BME280;72328;49.570;8.722;2023-11-21T19:54:25;99957.78;;;14.74;58.53
46366;BME280;72328;49.570;8.722;2023-11-21T19:58:26;99966.50;;;14.73;58.63
46366;BME280;72328;49.570;8.722;2023-11-21T20:02:27;99964.84;;;14.72;58.54
46366;BME280;72328;49.570;8.722;2023-11-21T20:06:27;99970.16;;;14.70;58.51
46366;BME280;72328;49.570;8.722;2023-11-21T20:10:28;99969.44;;;14.68;58.60
46366;BME280;72328;49.570;8.722;2023-11-21T20:14:29;99970.41;;;14.67;58.50
46366;BME280;72328;49.570;8.722;2023-11-21T20:18:31;99976.53;;;14.66;58.28
46366;BME280;72328;49.570;8.722;2023-11-21T20:22:32;99986.78;;;14.68;58.48
46366;BME280;72328;49.570;8.722;2023-11-21T20:26:36;99991.13;;;14.67;58.50
46366;BME280;72328;49.570;8.722;2023-11-21T20:30:37;99986.44;;;14.61;58.45
46366;BME280;72328;49.570;8.722;2023-11-21T20:34:38;100009.28;;;14.67;58.58
46366;BME280;72328;49.570;8.722;2023-11-21T20:38:40;100011.88;;;14.67;58.67
46366;BME280;72328;49.570;8.722;2023-11-21T20:42:40;100021.41;;;14.67;58.74
46366;BME280;72328;49.570;8.722;2023-11-21T20:46:44;100021.53;;;14.65;58.64
46366;BME280;72328;49.570;8.722;2023-11-21T20:50:46;100027.78;;;14.63;58.60
46366;BME280;72328;49.570;8.722;2023-11-21T20:54:47;100028.41;;;14.55;58.74
46366;BME280;72328;49.570;8.722;2023-11-21T20:58:47;100037.25;;;14.42;58.82
46366;BME280;72328;49.570;8.722;2023-11-21T21:02:51;100033.00;;;14.30;59.13
46366;BME280;72328;49.570;8.722;2023-11-21T21:06:53;100029.09;;;14.13;59.06
46366;BME280;72328;49.570;8.722;2023-11-21T21:10:53;100032.50;;;14.03;59.14
46366;BME280;72328;49.570;8.722;2023-11-21T21:14:55;100036.16;;;13.89;59.32
46366;BME280;72328;49.570;8.722;2023-11-21T21:18:59;100043.69;;;13.81;59.14
46366;BME280;72328;49.570;8.722;2023-11-21T21:22:59;100039.28;;;13.71;59.37
46366;BME280;72328;49.570;8.722;2023-11-21T21:27:00;100033.41;;;13.58;58.92